Time;durP1;ratioP1;P1;durP2;ratioP2;P2;SDS_P1;SDS_P2;PMS_P1;PMS_P2;Temp;Humidity;BMP_temperature;BMP_pressure;BME280_temperature;BME280_humidity;BME280_pressure;Samples;Min_cycle;Max_cycle;Signal;HPM_P1;HPM_P2
2022/07/14 00:00:44;;;;;;;;;;;17.80;90.20;;;;;;5095841;28;19954;-69
2022/07/14 00:03:10;;;;;;;;;;;17.70;90.20;;;;;;5106080;28;19980;-67
2022/07/14 00:05:35;;;;;;;;;;;17.60;88.60;;;;;;5112416;28;19920;-67
2022/07/14 00:08:01;;;;;;;;;;;17.50;89.30;;;;;;5102473;28;19931;-66
2022/07/14 00:10:27;;;;;;;;;;;17.50;90.00;;;;;;5089720;28;19900;-67
2022/07/14 00:12:53;;;;;;;;;;;17.40;90.40;;;;;;5095589;28;19923;-67
2022/07/14 00:15:18;;;;;;;;;;;17.40;89.30;;;;;;5111248;28;20006;-66
2022/07/14 00:17:44;;;;;;;;;;;17.40;89.70;;;;;;5105713;28;19926;-67
2022/07/14 00:20:10;;;;;;;;;;;17.30;89.30;;;;;;5105096;28;20366;-66
2022/07/14 00:22:36;;;;;;;;;;;17.30;89.40;;;;;;5093666;28;20366;-65
2022/07/14 00:25:01;;;;;;;;;;;17.20;89.80;;;;;;5113229;28;19916;-66
2022/07/14 00:27:27;;;;;;;;;;;17.20;89.70;;;;;;5097844;28;19916;-65
2022/07/14 00:29:53;;;;;;;;;;;17.30;89.70;;;;;;5084543;28;19912;-66
2022/07/14 00:32:18;;;;;;;;;;;17.20;89.30;;;;;;5103783;28;19912;-65
2022/07/14 00:34:44;;;;;;;;;;;17.10;90.40;;;;;;5107271;28;19924;-66
2022/07/14 00:37:10;;;;;;;;;;;17.10;90.60;;;;;;5089415;28;19962;-66
2022/07/14 00:42:39;;;;;;;;;;;17.00;91.20;;;;;;5110928;28;19923;-65
2022/07/14 00:45:04;;;;;;;;;;;17.00;91.30;;;;;;5097065;28;19927;-66
2022/07/14 00:47:30;;;;;;;;;;;16.90;91.30;;;;;;5111001;28;19919;-66
2022/07/14 00:49:56;;;;;;;;;;;16.80;91.70;;;;;;5103321;28;19914;-66
2022/07/14 00:52:22;;;;;;;;;;;16.80;92.60;;;;;;5099542;28;19958;-65
2022/07/14 00:54:48;;;;;;;;;;;16.70;93.70;;;;;;5095648;28;19920;-66
2022/07/14 00:57:14;;;;;;;;;;;16.60;93.60;;;;;;5098882;28;20477;-65
2022/07/14 00:59:39;;;;;;;;;;;16.60;93.60;;;;;;5094463;28;20373;-65
2022/07/14 01:02:05;;;;;;;;;;;16.50;94.60;;;;;;5086908;28;20393;-66
2022/07/14 01:04:30;;;;;;;;;;;16.50;94.40;;;;;;5102235;28;19908;-66
2022/07/14 01:06:56;;;;;;;;;;;16.40;94.90;;;;;;5093733;28;19916;-66
2022/07/14 01:09:22;;;;;;;;;;;16.30;95.00;;;;;;5095040;28;19915;-66
2022/07/14 01:11:47;;;;;;;;;;;16.20;95.50;;;;;;5103193;28;20357;-66
2022/07/14 01:14:13;;;;;;;;;;;16.10;95.50;;;;;;5096512;28;20374;-67
2022/07/14 01:16:38;;;;;;;;;;;16.10;96.00;;;;;;5083932;28;20003;-67
2022/07/14 01:19:04;;;;;;;;;;;16.00;96.10;;;;;;5101797;28;19912;-67
2022/07/14 01:21:29;;;;;;;;;;;16.10;95.90;;;;;;5102302;28;19912;-68
2022/07/14 01:23:55;;;;;;;;;;;16.00;96.80;;;;;;5106811;28;19912;-67
2022/07/14 01:26:20;;;;;;;;;;;16.00;96.10;;;;;;5099609;28;19911;-66
2022/07/14 01:28:46;;;;;;;;;;;15.90;95.60;;;;;;5080596;28;19912;-66
2022/07/14 01:31:11;;;;;;;;;;;15.80;95.30;;;;;;5098446;28;20366;-66
2022/07/14 01:33:37;;;;;;;;;;;15.70;96.10;;;;;;5098699;28;19928;-66
2022/07/14 01:36:03;;;;;;;;;;;15.70;96.40;;;;;;5104572;28;19923;-64
2022/07/14 01:38:28;;;;;;;;;;;15.60;97.20;;;;;;5097370;28;19999;-66
2022/07/14 01:40:54;;;;;;;;;;;15.60;97.60;;;;;;5107462;28;19978;-66
2022/07/14 01:43:19;;;;;;;;;;;15.60;98.30;;;;;;5114274;28;19920;-67
2022/07/14 01:45:45;;;;;;;;;;;15.60;97.90;;;;;;5095982;28;20010;-66
2022/07/14 01:48:10;;;;;;;;;;;15.50;97.90;;;;;;5098031;28;19911;-66
2022/07/14 01:50:36;;;;;;;;;;;15.50;98.90;;;;;;5096115;28;20400;-66
2022/07/14 01:53:01;;;;;;;;;;;15.40;98.50;;;;;;5113034;28;19923;-66
2022/07/14 01:55:28;;;;;;;;;;;15.30;99.10;;;;;;5123178;28;19915;-66
2022/07/14 01:57:53;;;;;;;;;;;15.20;99.40;;;;;;5117105;28;19952;-67
2022/07/14 02:00:19;;;;;;;;;;;15.20;98.90;;;;;;5124116;28;19922;-67
2022/07/14 02:02:44;;;;;;;;;;;15.20;98.20;;;;;;5100111;28;19924;-67
2022/07/14 02:05:10;;;;;;;;;;;15.20;98.00;;;;;;5103611;28;20384;-65
2022/07/14 02:07:36;;;;;;;;;;;15.20;98.90;;;;;;5102820;28;19916;-65
2022/07/14 02:12:47;;;;;;;;;;;15.10;99.30;;;;;;5100369;28;20012;-65
2022/07/14 02:15:12;;;;;;;;;;;15.00;99.60;;;;;;5102304;28;19967;-65
2022/07/14 02:17:38;;;;;;;;;;;14.90;99.90;;;;;;5098635;28;19988;-65
2022/07/14 02:20:03;;;;;;;;;;;15.00;99.90;;;;;;5106715;28;19911;-66
2022/07/14 02:22:29;;;;;;;;;;;14.90;99.90;;;;;;5105412;28;19912;-65
2022/07/14 02:24:55;;;;;;;;;;;14.90;99.90;;;;;;5099282;28;19938;-65
2022/07/14 02:27:20;;;;;;;;;;;14.80;99.90;;;;;;5102861;28;19931;-65
2022/07/14 02:29:46;;;;;;;;;;;14.80;99.90;;;;;;5099943;28;19915;-65
2022/07/14 02:32:12;;;;;;;;;;;14.80;99.90;;;;;;5098669;28;20289;-65
2022/07/14 02:34:38;;;;;;;;;;;14.80;99.90;;;;;;5082408;28;19999;-66
2022/07/14 02:37:03;;;;;;;;;;;14.80;99.90;;;;;;5093091;28;20366;-66
2022/07/14 02:39:29;;;;;;;;;;;14.70;99.90;;;;;;5108999;28;19935;-66
2022/07/14 02:44:57;;;;;;;;;;;14.70;99.90;;;;;;5105465;28;19950;-65
2022/07/14 02:47:23;;;;;;;;;;;14.70;99.90;;;;;;5104824;28;19912;-66
2022/07/14 02:49:49;;;;;;;;;;;14.70;99.90;;;;;;5097616;28;19959;-66
2022/07/14 02:52:15;;;;;;;;;;;14.60;99.90;;;;;;5098940;28;19912;-65
2022/07/14 02:54:41;;;;;;;;;;;14.50;99.90;;;;;;5103984;28;19930;-66
2022/07/14 02:57:06;;;;;;;;;;;14.40;99.90;;;;;;5098357;28;19912;-65
2022/07/14 02:59:32;;;;;;;;;;;14.40;99.90;;;;;;5104460;28;19908;-66
2022/07/14 03:01:57;;;;;;;;;;;14.30;99.90;;;;;;5087491;28;20285;-66
2022/07/14 03:04:23;;;;;;;;;;;14.30;99.90;;;;;;5095417;28;19911;-66
2022/07/14 03:06:49;;;;;;;;;;;14.20;99.90;;;;;;5104011;28;19912;-66
2022/07/14 03:09:14;;;;;;;;;;;14.10;99.90;;;;;;5099581;28;20300;-66
2022/07/14 03:11:40;;;;;;;;;;;14.10;99.90;;;;;;5098932;28;20374;-65
2022/07/14 03:14:06;;;;;;;;;;;14.20;99.90;;;;;;5098166;28;20258;-66
2022/07/14 03:16:31;;;;;;;;;;;14.20;99.90;;;;;;5095894;28;19912;-66
2022/07/14 03:18:57;;;;;;;;;;;14.20;99.90;;;;;;5094536;28;19912;-66
2022/07/14 03:21:23;;;;;;;;;;;14.10;99.90;;;;;;5111587;28;19912;-66
2022/07/14 03:23:48;;;;;;;;;;;14.20;99.90;;;;;;5109241;28;20235;-65
2022/07/14 03:26:14;;;;;;;;;;;14.20;99.90;;;;;;5101367;28;19996;-66
2022/07/14 03:28:40;;;;;;;;;;;14.20;99.90;;;;;;5104336;28;19919;-65
2022/07/14 03:31:06;;;;;;;;;;;14.20;99.90;;;;;;5097066;28;19912;-65
2022/07/14 03:33:31;;;;;;;;;;;14.10;99.90;;;;;;5089525;28;20064;-66
2022/07/14 03:35:57;;;;;;;;;;;14.10;99.90;;;;;;5085877;28;20270;-66
2022/07/14 03:38:23;;;;;;;;;;;14.00;99.90;;;;;;5096327;28;19919;-65
2022/07/14 03:40:48;;;;;;;;;;;14.00;99.90;;;;;;5096297;28;19993;-65
2022/07/14 03:43:14;;;;;;;;;;;13.90;99.90;;;;;;5081233;28;20271;-66
2022/07/14 03:45:40;;;;;;;;;;;13.90;99.90;;;;;;5098753;28;19912;-65
2022/07/14 03:48:07;;;;;;;;;;;13.90;99.90;;;;;;5085898;28;19948;-66
2022/07/14 03:50:33;;;;;;;;;;;13.90;99.90;;;;;;5099838;28;19934;-65
2022/07/14 03:52:58;;;;;;;;;;;13.70;99.90;;;;;;5104846;28;19951;-65
2022/07/14 03:55:24;;;;;;;;;;;13.70;99.90;;;;;;5105003;28;19948;-65
2022/07/14 03:57:49;;;;;;;;;;;13.60;99.90;;;;;;5100052;28;19965;-66
2022/07/14 04:00:15;;;;;;;;;;;13.50;99.90;;;;;;5102409;28;19916;-64
2022/07/14 04:02:41;;;;;;;;;;;13.50;99.90;;;;;;5102845;28;19916;-65
2022/07/14 04:05:07;;;;;;;;;;;13.50;99.90;;;;;;5101805;28;20010;-66
2022/07/14 04:07:32;;;;;;;;;;;13.50;99.90;;;;;;5094937;28;20355;-66
2022/07/14 04:09:58;;;;;;;;;;;13.50;99.90;;;;;;5096516;28;19919;-66
2022/07/14 04:12:24;;;;;;;;;;;13.40;99.90;;;;;;5094439;28;20046;-66
2022/07/14 04:14:50;;;;;;;;;;;13.40;99.90;;;;;;5111078;28;20024;-66
2022/07/14 04:17:15;;;;;;;;;;;13.40;99.90;;;;;;5101956;28;19915;-66
2022/07/14 04:19:41;;;;;;;;;;;13.40;99.90;;;;;;5082887;28;19919;-66
2022/07/14 04:22:06;;;;;;;;;;;13.40;99.90;;;;;;5097430;28;19919;-66
2022/07/14 04:24:32;;;;;;;;;;;13.40;99.90;;;;;;5098181;28;19959;-66
2022/07/14 04:26:57;;;;;;;;;;;13.40;99.90;;;;;;5108711;28;19957;-66
2022/07/14 04:29:23;;;;;;;;;;;13.40;99.90;;;;;;5081207;28;19919;-65
2022/07/14 04:31:49;;;;;;;;;;;13.40;99.90;;;;;;5095799;28;19912;-65
2022/07/14 04:34:14;;;;;;;;;;;13.40;99.90;;;;;;5100167;28;19974;-65
2022/07/14 04:36:40;;;;;;;;;;;13.40;99.90;;;;;;5100576;28;20366;-65
2022/07/14 04:39:06;;;;;;;;;;;13.30;99.90;;;;;;5111966;28;19947;-65
2022/07/14 04:41:33;;;;;;;;;;;13.30;99.90;;;;;;5110289;28;19926;-65
2022/07/14 04:43:58;;;;;;;;;;;13.30;99.90;;;;;;5103338;28;20246;-66
2022/07/14 04:46:24;;;;;;;;;;;13.30;99.90;;;;;;5101864;28;19912;-66
2022/07/14 04:54:18;;;;;;;;;;;13.40;99.90;;;;;;5094025;28;20337;-68
2022/07/14 04:56:44;;;;;;;;;;;13.50;99.90;;;;;;5097767;28;19916;-68
2022/07/14 04:59:09;;;;;;;;;;;13.60;99.90;;;;;;5093318;28;20361;-67
2022/07/14 05:01:35;;;;;;;;;;;13.80;99.90;;;;;;5105222;28;20358;-67
2022/07/14 05:04:00;;;;;;;;;;;13.80;99.90;;;;;;5098253;28;20060;-66
2022/07/14 05:06:26;;;;;;;;;;;13.80;99.90;;;;;;5094909;28;20287;-67
2022/07/14 05:08:51;;;;;;;;;;;13.90;99.90;;;;;;5099269;28;19912;-67
2022/07/14 05:11:17;;;;;;;;;;;14.00;99.90;;;;;;5108783;28;19911;-67
2022/07/14 05:13:42;;;;;;;;;;;14.00;99.90;;;;;;5109394;28;19919;-68
2022/07/14 05:16:08;;;;;;;;;;;14.10;99.90;;;;;;5099315;28;19916;-67
2022/07/14 05:18:33;;;;;;;;;;;14.20;99.90;;;;;;5101231;28;19942;-67
2022/07/14 05:20:59;;;;;;;;;;;14.30;99.90;;;;;;5099617;28;20576;-67
2022/07/14 05:23:25;;;;;;;;;;;14.30;99.90;;;;;;5081158;28;20417;-66
2022/07/14 05:25:50;;;;;;;;;;;14.40;99.90;;;;;;5103086;28;20335;-68
2022/07/14 05:28:16;;;;;;;;;;;14.50;99.90;;;;;;5096994;28;19999;-67
2022/07/14 05:30:41;;;;;;;;;;;14.50;99.90;;;;;;5096150;28;20078;-67
2022/07/14 05:33:08;;;;;;;;;;;14.60;99.90;;;;;;5095011;28;19957;-68
2022/07/14 05:35:33;;;;;;;;;;;14.70;99.90;;;;;;5086453;28;19920;-68
2022/07/14 05:37:59;;;;;;;;;;;14.70;99.90;;;;;;5097833;28;19918;-67
2022/07/14 05:40:24;;;;;;;;;;;14.70;99.90;;;;;;5105265;27;19920;-66
2022/07/14 05:42:50;;;;;;;;;;;14.80;99.90;;;;;;5109658;28;20019;-66
2022/07/14 05:45:16;;;;;;;;;;;14.90;99.90;;;;;;5108617;28;19936;-65
2022/07/14 05:47:42;;;;;;;;;;;15.30;99.90;;;;;;5096943;28;20426;-66
2022/07/14 05:50:08;;;;;;;;;;;15.40;99.90;;;;;;5105658;28;19951;-67
2022/07/14 05:52:34;;;;;;;;;;;15.40;99.90;;;;;;5102038;28;19977;-67
2022/07/14 05:55:01;;;;;;;;;;;15.40;99.90;;;;;;5096499;28;20362;-66
2022/07/14 05:57:26;;;;;;;;;;;15.20;99.90;;;;;;5092563;28;19956;-67
2022/07/14 05:59:52;;;;;;;;;;;15.20;99.90;;;;;;5098114;28;19919;-67
2022/07/14 06:02:18;;;;;;;;;;;15.20;99.90;;;;;;5098211;28;20285;-67
2022/07/14 06:04:43;;;;;;;;;;;15.20;99.90;;;;;;5101199;28;19912;-67
2022/07/14 06:07:09;;;;;;;;;;;15.30;99.90;;;;;;5100180;28;19912;-68
2022/07/14 06:09:36;;;;;;;;;;;15.30;99.90;;;;;;5097259;28;19998;-67
2022/07/14 06:12:02;;;;;;;;;;;15.30;99.90;;;;;;5079675;28;19919;-67
2022/07/14 06:14:27;;;;;;;;;;;15.40;99.90;;;;;;5081632;28;20593;-68
2022/07/14 06:16:53;;;;;;;;;;;15.40;99.90;;;;;;5096083;28;19922;-67
2022/07/14 06:19:18;;;;;;;;;;;15.50;99.90;;;;;;5098768;28;19912;-67
2022/07/14 06:21:44;;;;;;;;;;;15.60;99.90;;;;;;5089942;28;19923;-66
2022/07/14 06:24:12;;;;;;;;;;;15.60;99.90;;;;;;5096229;28;19969;-67
2022/07/14 06:26:37;;;;;;;;;;;15.60;99.90;;;;;;5093524;28;19912;-68
2022/07/14 06:29:03;;;;;;;;;;;15.60;99.90;;;;;;5094978;28;19998;-66
2022/07/14 06:31:33;;;;;;;;;;;15.70;99.90;;;;;;5083972;28;20392;-68
2022/07/14 06:34:00;;;;;;;;;;;15.80;99.90;;;;;;5100637;28;20399;-67
2022/07/14 06:36:25;;;;;;;;;;;15.80;99.90;;;;;;5073451;28;19922;-66
2022/07/14 06:38:51;;;;;;;;;;;16.00;99.90;;;;;;5092015;28;19920;-66
2022/07/14 06:41:19;;;;;;;;;;;16.10;99.90;;;;;;5098668;28;19912;-65
2022/07/14 06:43:44;;;;;;;;;;;16.30;99.90;;;;;;5095685;28;20021;-66
2022/07/14 06:46:13;;;;;;;;;;;16.30;99.90;;;;;;5103508;28;20008;-65
2022/07/14 06:48:39;;;;;;;;;;;16.50;99.90;;;;;;5098348;28;19995;-65
2022/07/14 06:51:04;;;;;;;;;;;16.70;99.90;;;;;;5095968;28;20007;-66
2022/07/14 06:53:30;;;;;;;;;;;16.80;99.90;;;;;;5094751;28;19950;-65
2022/07/14 06:55:56;;;;;;;;;;;17.00;99.90;;;;;;5093886;28;20374;-66
2022/07/14 06:58:21;;;;;;;;;;;17.10;99.90;;;;;;5107247;28;19969;-66
2022/07/14 07:00:47;;;;;;;;;;;17.10;99.90;;;;;;5107190;28;19950;-65
2022/07/14 07:03:13;;;;;;;;;;;17.20;99.90;;;;;;5107189;28;19931;-65
2022/07/14 07:08:23;;;;;;;;;;;17.20;99.90;;;;;;5091828;28;20425;-66
2022/07/14 07:10:49;;;;;;;;;;;17.20;98.10;;;;;;5089337;28;19912;-65
2022/07/14 07:13:15;;;;;;;;;;;17.10;97.00;;;;;;5091931;28;20360;-66
2022/07/14 07:15:41;;;;;;;;;;;17.20;97.00;;;;;;5092729;28;20386;-66
2022/07/14 07:18:07;;;;;;;;;;;17.20;97.30;;;;;;5094056;28;19920;-66
2022/07/14 07:20:33;;;;;;;;;;;17.10;96.30;;;;;;5073793;28;20007;-66
2022/07/14 07:23:00;;;;;;;;;;;17.10;96.20;;;;;;5089964;28;19920;-65
2022/07/14 07:25:25;;;;;;;;;;;17.10;96.10;;;;;;5088004;28;19976;-66
2022/07/14 07:27:51;;;;;;;;;;;17.20;95.40;;;;;;5075873;28;20006;-66
2022/07/14 07:30:16;;;;;;;;;;;17.20;95.70;;;;;;5094545;28;20007;-66
2022/07/14 07:32:42;;;;;;;;;;;17.30;95.20;;;;;;5107871;28;19912;-67
2022/07/14 07:35:07;;;;;;;;;;;17.40;95.20;;;;;;5096456;28;20022;-66
2022/07/14 07:37:33;;;;;;;;;;;17.50;93.40;;;;;;5091190;28;19916;-66
2022/07/14 07:39:59;;;;;;;;;;;17.50;93.50;;;;;;5088585;28;20011;-66
2022/07/14 07:42:25;;;;;;;;;;;17.60;94.10;;;;;;5076150;28;20263;-67
2022/07/14 07:44:51;;;;;;;;;;;17.70;93.10;;;;;;5073322;28;19944;-66
2022/07/14 07:47:16;;;;;;;;;;;17.80;92.50;;;;;;5098222;28;20027;-66
2022/07/14 07:49:42;;;;;;;;;;;17.80;92.70;;;;;;5096176;28;19912;-66
2022/07/14 07:52:08;;;;;;;;;;;17.80;92.40;;;;;;5096835;28;20366;-66
2022/07/14 07:54:33;;;;;;;;;;;17.70;92.70;;;;;;5090666;28;20023;-65
2022/07/14 07:56:59;;;;;;;;;;;17.80;92.10;;;;;;5094024;28;19957;-66
2022/07/14 07:59:25;;;;;;;;;;;17.80;91.80;;;;;;5089356;28;20370;-66
2022/07/14 08:01:51;;;;;;;;;;;18.00;92.20;;;;;;5076072;28;19912;-65
2022/07/14 08:04:17;;;;;;;;;;;18.00;91.10;;;;;;5098549;28;19912;-66
2022/07/14 08:06:42;;;;;;;;;;;17.90;91.50;;;;;;5104113;28;19920;-65
2022/07/14 08:09:11;;;;;;;;;;;18.00;91.60;;;;;;5103460;28;19912;-65
2022/07/14 08:11:37;;;;;;;;;;;18.00;91.80;;;;;;5083805;28;19983;-65
2022/07/14 08:14:03;;;;;;;;;;;18.20;91.20;;;;;;5078480;28;19921;-66
2022/07/14 08:16:29;;;;;;;;;;;18.20;91.40;;;;;;5072935;28;19918;-66
2022/07/14 08:18:57;;;;;;;;;;;18.30;91.50;;;;;;5080795;28;19978;-66
2022/07/14 08:21:23;;;;;;;;;;;18.30;91.50;;;;;;5081768;28;19935;-65
2022/07/14 08:23:50;;;;;;;;;;;18.50;91.00;;;;;;5088398;28;19912;-65
2022/07/14 08:26:16;;;;;;;;;;;18.60;90.70;;;;;;5089341;28;20355;-65
2022/07/14 08:28:41;;;;;;;;;;;18.70;89.70;;;;;;5088574;28;19912;-65
2022/07/14 08:31:07;;;;;;;;;;;18.70;89.80;;;;;;5085285;28;19999;-67
2022/07/14 08:33:32;;;;;;;;;;;18.70;90.20;;;;;;5077088;28;19919;-66
2022/07/14 08:35:58;;;;;;;;;;;18.90;90.30;;;;;;5079660;28;19951;-67
2022/07/14 08:38:24;;;;;;;;;;;19.00;90.60;;;;;;5083853;28;19919;-67
2022/07/14 08:40:49;;;;;;;;;;;19.20;90.40;;;;;;5081982;28;19956;-66
2022/07/14 08:43:15;;;;;;;;;;;19.30;88.90;;;;;;5084010;28;19916;-65
2022/07/14 08:45:41;;;;;;;;;;;19.50;87.30;;;;;;5073545;28;19912;-66
2022/07/14 08:48:08;;;;;;;;;;;19.40;86.40;;;;;;5073315;28;19976;-65
2022/07/14 08:50:33;;;;;;;;;;;19.30;86.90;;;;;;5080549;28;19913;-66
2022/07/14 08:53:03;;;;;;;;;;;19.20;87.00;;;;;;5079438;28;19934;-68
2022/07/14 08:55:29;;;;;;;;;;;19.20;87.40;;;;;;5079653;28;20023;-68
2022/07/14 08:57:55;;;;;;;;;;;19.10;88.00;;;;;;5072571;28;19912;-67
2022/07/14 09:00:21;;;;;;;;;;;19.20;87.90;;;;;;5079125;28;20373;-68
2022/07/14 09:02:48;;;;;;;;;;;19.20;87.70;;;;;;5085243;28;20207;-66
2022/07/14 09:05:14;;;;;;;;;;;19.30;88.00;;;;;;5078229;28;19912;-67
2022/07/14 09:07:40;;;;;;;;;;;19.40;87.70;;;;;;5077052;28;19927;-67
2022/07/14 09:10:07;;;;;;;;;;;19.50;85.30;;;;;;5085187;28;19920;-66
2022/07/14 09:12:34;;;;;;;;;;;19.50;85.50;;;;;;5076317;28;19917;-66
2022/07/14 09:17:50;;;;;;;;;;;19.80;83.30;;;;;;5089215;28;22716;-66
2022/07/14 09:20:15;;;;;;;;;;;19.90;82.50;;;;;;5108190;28;19928;-66
2022/07/14 09:22:42;;;;;;;;;;;19.90;83.40;;;;;;5095948;28;19919;-66
2022/07/14 09:25:09;;;;;;;;;;;19.90;82.50;;;;;;5098900;28;20401;-66
2022/07/14 09:27:35;;;;;;;;;;;19.80;82.90;;;;;;5093753;28;20607;-66
2022/07/14 09:30:00;;;;;;;;;;;19.70;84.60;;;;;;5101121;28;20147;-66
2022/07/14 09:32:41;;;;;;;;;;;19.90;83.40;;;;;;5095195;28;19923;-66
2022/07/14 09:35:07;;;;;;;;;;;20.00;83.30;;;;;;5091944;28;19920;-66
2022/07/14 09:37:33;;;;;;;;;;;20.30;83.30;;;;;;5079250;28;19924;-67
2022/07/14 09:39:59;;;;;;;;;;;20.30;82.00;;;;;;5096969;28;19945;-66
2022/07/14 09:42:43;;;;;;;;;;;20.20;82.00;;;;;;5101908;28;19912;-67
2022/07/14 09:45:09;;;;;;;;;;;20.20;83.00;;;;;;5101192;28;19942;-67
2022/07/14 09:47:50;;;;;;;;;;;20.60;80.50;;;;;;5100790;28;20370;-67
2022/07/14 09:50:31;;;;;;;;;;;20.70;80.30;;;;;;5075448;28;19927;-67
2022/07/14 09:52:56;;;;;;;;;;;20.70;79.80;;;;;;5100823;28;19916;-66
2022/07/14 09:55:22;;;;;;;;;;;20.80;79.60;;;;;;5094479;28;19923;-65
2022/07/14 09:57:48;;;;;;;;;;;20.70;80.00;;;;;;5106426;28;19916;-65
2022/07/14 10:00:18;;;;;;;;;;;20.60;80.00;;;;;;5075714;28;20229;-65
2022/07/14 10:02:43;;;;;;;;;;;20.80;80.80;;;;;;5094087;28;19964;-67
2022/07/14 10:05:09;;;;;;;;;;;20.70;80.50;;;;;;5085860;28;19966;-66
2022/07/14 10:07:36;;;;;;;;;;;20.80;80.80;;;;;;5105620;28;20227;-66
2022/07/14 10:10:04;;;;;;;;;;;21.00;78.30;;;;;;5094388;28;19938;-65
2022/07/14 10:12:30;;;;;;;;;;;21.00;77.00;;;;;;5089112;28;19912;-66
2022/07/14 10:15:00;;;;;;;;;;;20.90;76.60;;;;;;5079280;28;19943;-66
2022/07/14 10:17:27;;;;;;;;;;;21.10;75.80;;;;;;5062974;28;19966;-65
2022/07/14 10:19:53;;;;;;;;;;;21.40;75.80;;;;;;5082449;28;19912;-62
2022/07/14 10:22:19;;;;;;;;;;;21.50;76.50;;;;;;5058941;28;21099;-66
2022/07/14 10:24:46;;;;;;;;;;;21.70;74.70;;;;;;5075784;28;19919;-67
2022/07/14 10:27:11;;;;;;;;;;;21.80;73.00;;;;;;5074669;28;19922;-67
2022/07/14 10:29:37;;;;;;;;;;;22.00;73.00;;;;;;5091474;28;20011;-65
2022/07/14 10:32:18;;;;;;;;;;;22.00;71.80;;;;;;5064647;28;19965;-66
2022/07/14 10:34:59;;;;;;;;;;;22.00;71.30;;;;;;5055111;28;19995;-66
2022/07/14 10:37:43;;;;;;;;;;;21.90;72.50;;;;;;5074543;28;19916;-66
2022/07/14 10:40:16;;;;;;;;;;;21.80;72.50;;;;;;5056964;28;20031;-66
2022/07/14 10:43:04;;;;;;;;;;;22.10;72.70;;;;;;5056456;28;19974;-66
2022/07/14 10:45:30;;;;;;;;;;;22.30;72.10;;;;;;5062833;28;19912;-67
2022/07/14 10:47:56;;;;;;;;;;;21.90;71.00;;;;;;5076361;28;19920;-65
2022/07/14 10:50:26;;;;;;;;;;;21.70;72.20;;;;;;5077597;28;19916;-65
2022/07/14 10:52:54;;;;;;;;;;;21.90;73.40;;;;;;5076320;28;19912;-65
2022/07/14 10:55:23;;;;;;;;;;;22.10;72.50;;;;;;5059562;28;20299;-66
2022/07/14 10:58:07;;;;;;;;;;;22.10;72.70;;;;;;5079238;28;19920;-66
2022/07/14 11:00:44;;;;;;;;;;;21.80;72.20;;;;;;5082271;28;19957;-67
2022/07/14 11:03:22;;;;;;;;;;;21.70;72.30;;;;;;5052639;28;19979;-67
2022/07/14 11:06:00;;;;;;;;;;;21.60;73.20;;;;;;5076033;28;19912;-67
2022/07/14 11:08:26;;;;;;;;;;;21.60;72.90;;;;;;5085517;28;19912;-66
2022/07/14 11:10:53;;;;;;;;;;;21.90;73.50;;;;;;5058281;28;20005;-67
2022/07/14 11:13:18;;;;;;;;;;;22.20;71.00;;;;;;5056936;28;19912;-66
2022/07/14 11:15:45;;;;;;;;;;;22.30;71.10;;;;;;5108362;28;20278;-66
2022/07/14 11:18:17;;;;;;;;;;;22.20;71.00;;;;;;5114701;28;19908;-65
2022/07/14 11:20:49;;;;;;;;;;;22.10;71.10;;;;;;5096322;28;19912;-66
2022/07/14 11:23:16;;;;;;;;;;;22.10;70.20;;;;;;5110832;28;19952;-66
2022/07/14 11:25:43;;;;;;;;;;;22.20;70.30;;;;;;5098239;28;19916;-65
2022/07/14 11:28:28;;;;;;;;;;;22.40;70.70;;;;;;5111268;28;19939;-65
2022/07/14 11:31:13;;;;;;;;;;;22.70;68.50;;;;;;5087670;28;19969;-66
2022/07/14 11:36:26;;;;;;;;;;;22.40;70.40;;;;;;5069434;28;19915;-65
2022/07/14 11:39:12;;;;;;;;;;;22.30;70.70;;;;;;5101278;28;19919;-67
2022/07/14 11:41:51;;;;;;;;;;;22.00;71.50;;;;;;5094233;28;19912;-66
2022/07/14 11:44:41;;;;;;;;;;;22.00;72.40;;;;;;5091829;28;20011;-67
2022/07/14 11:47:15;;;;;;;;;;;22.30;71.40;;;;;;5084658;28;19908;-66
2022/07/14 11:49:41;;;;;;;;;;;22.40;68.80;;;;;;5092690;28;19912;-66
2022/07/14 11:52:07;;;;;;;;;;;22.50;68.70;;;;;;5084484;28;20023;-66
2022/07/14 11:54:33;;;;;;;;;;;22.40;69.00;;;;;;5097648;28;20402;-66
2022/07/14 11:57:06;;;;;;;;;;;22.40;68.60;;;;;;5079792;28;19928;-66
2022/07/14 11:59:32;;;;;;;;;;;22.60;68.80;;;;;;5092423;28;20385;-67
2022/07/14 12:02:05;;;;;;;;;;;22.80;68.80;;;;;;5091732;28;19912;-66
2022/07/14 12:04:30;;;;;;;;;;;22.90;68.50;;;;;;5092687;28;19938;-67
2022/07/14 12:06:56;;;;;;;;;;;22.90;69.80;;;;;;5109327;28;19924;-66
2022/07/14 12:09:33;;;;;;;;;;;22.90;70.20;;;;;;5093809;28;19980;-66
2022/07/14 12:12:01;;;;;;;;;;;22.60;70.60;;;;;;5099299;28;19965;-65
2022/07/14 12:14:27;;;;;;;;;;;22.70;69.50;;;;;;5094538;28;19974;-66
2022/07/14 12:16:53;;;;;;;;;;;22.50;70.30;;;;;;5104603;28;19911;-66
2022/07/14 12:19:28;;;;;;;;;;;22.60;70.00;;;;;;5093511;28;19932;-67
2022/07/14 12:21:57;;;;;;;;;;;22.80;70.70;;;;;;5093541;28;19920;-67
2022/07/14 12:24:24;;;;;;;;;;;22.90;69.90;;;;;;5092358;28;19921;-67
2022/07/14 12:26:50;;;;;;;;;;;22.70;69.30;;;;;;5091522;28;20378;-66
2022/07/14 12:29:16;;;;;;;;;;;22.60;70.10;;;;;;5073545;28;19912;-66
2022/07/14 12:31:42;;;;;;;;;;;22.60;71.50;;;;;;5097111;28;20034;-66
2022/07/14 12:34:08;;;;;;;;;;;22.40;70.10;;;;;;5108375;28;19919;-66
2022/07/14 12:36:34;;;;;;;;;;;22.30;70.60;;;;;;5109612;28;19930;-66
2022/07/14 12:39:02;;;;;;;;;;;22.20;69.00;;;;;;5096553;28;19916;-65
2022/07/14 12:41:28;;;;;;;;;;;22.50;69.70;;;;;;5109331;28;19916;-66
2022/07/14 12:43:56;;;;;;;;;;;22.70;68.30;;;;;;5100504;28;20243;-65
2022/07/14 12:46:22;;;;;;;;;;;23.00;66.80;;;;;;5097725;28;20381;-66
2022/07/14 12:48:48;;;;;;;;;;;22.90;66.60;;;;;;5108619;28;19938;-65
2022/07/14 12:51:29;;;;;;;;;;;22.80;65.00;;;;;;5107910;28;20395;-66
2022/07/14 12:53:59;;;;;;;;;;;22.70;65.30;;;;;;5081638;28;19920;-65
2022/07/14 12:56:29;;;;;;;;;;;22.50;65.60;;;;;;5095431;28;20439;-65
2022/07/14 12:58:59;;;;;;;;;;;22.60;66.30;;;;;;5100141;28;19977;-65
2022/07/14 13:01:25;;;;;;;;;;;22.80;65.70;;;;;;5097338;28;19923;-64
2022/07/14 13:03:54;;;;;;;;;;;22.90;63.90;;;;;;5108198;28;19916;-65
2022/07/14 13:06:19;;;;;;;;;;;23.00;62.80;;;;;;5088741;28;19919;-65
2022/07/14 13:08:45;;;;;;;;;;;23.10;61.30;;;;;;5108202;28;19911;-66
2022/07/14 13:11:12;;;;;;;;;;;22.90;63.60;;;;;;5111006;28;19916;-65
2022/07/14 13:13:42;;;;;;;;;;;22.90;63.60;;;;;;5102691;28;19920;-65
2022/07/14 13:16:21;;;;;;;;;;;22.90;62.20;;;;;;5098351;28;20602;-65
2022/07/14 13:19:00;;;;;;;;;;;22.60;61.20;;;;;;5094771;28;19927;-65
2022/07/14 13:21:44;;;;;;;;;;;22.60;62.30;;;;;;5084561;28;19912;-66
2022/07/14 13:24:13;;;;;;;;;;;22.70;63.20;;;;;;5085710;28;19912;-65
2022/07/14 13:26:39;;;;;;;;;;;22.90;62.40;;;;;;5091287;28;19938;-65
2022/07/14 13:29:04;;;;;;;;;;;23.00;61.80;;;;;;5096899;28;20029;-66
2022/07/14 13:31:30;;;;;;;;;;;23.10;60.50;;;;;;5083723;28;19966;-65
2022/07/14 13:33:58;;;;;;;;;;;22.80;60.10;;;;;;5082216;28;19917;-65
2022/07/14 13:36:24;;;;;;;;;;;22.50;60.10;;;;;;5085009;28;19958;-65
2022/07/14 13:38:50;;;;;;;;;;;22.40;62.10;;;;;;5097168;28;19924;-65
2022/07/14 13:41:16;;;;;;;;;;;22.80;60.80;;;;;;5092792;28;19992;-67
2022/07/14 13:43:42;;;;;;;;;;;23.00;59.80;;;;;;5085413;28;20389;-65
2022/07/14 13:46:09;;;;;;;;;;;23.10;60.00;;;;;;5074784;28;19913;-65
2022/07/14 13:48:36;;;;;;;;;;;23.30;59.30;;;;;;5090071;28;20321;-65
2022/07/14 13:53:46;;;;;;;;;;;23.40;57.50;;;;;;5084188;28;20367;-64
2022/07/14 13:56:12;;;;;;;;;;;23.20;58.10;;;;;;5082103;28;19920;-65
2022/07/14 13:58:37;;;;;;;;;;;23.30;57.30;;;;;;5094170;28;19934;-65
2022/07/14 14:01:03;;;;;;;;;;;23.20;56.80;;;;;;5087831;28;19922;-65
2022/07/14 14:03:29;;;;;;;;;;;23.10;57.70;;;;;;5086260;28;20007;-64
2022/07/14 14:05:54;;;;;;;;;;;23.20;57.80;;;;;;5091023;28;19913;-65
2022/07/14 14:08:24;;;;;;;;;;;23.10;58.20;;;;;;5090010;28;19912;-65
2022/07/14 14:10:49;;;;;;;;;;;23.20;57.60;;;;;;5093065;28;20880;-65
2022/07/14 14:13:16;;;;;;;;;;;23.40;57.40;;;;;;5100779;28;19913;-64
2022/07/14 14:15:41;;;;;;;;;;;23.70;57.10;;;;;;5127980;28;19916;-65
2022/07/14 14:18:07;;;;;;;;;;;23.70;56.20;;;;;;5114030;28;19937;-65
2022/07/14 14:20:33;;;;;;;;;;;23.80;56.80;;;;;;5100658;28;19911;-64
2022/07/14 14:22:58;;;;;;;;;;;23.80;56.60;;;;;;5106416;28;19916;-64
2022/07/14 14:25:24;;;;;;;;;;;23.80;56.90;;;;;;5106814;28;19904;-65
2022/07/14 14:27:49;;;;;;;;;;;23.70;56.10;;;;;;5101521;28;20585;-65
2022/07/14 14:30:15;;;;;;;;;;;23.70;57.40;;;;;;5116162;28;19904;-64
2022/07/14 14:32:40;;;;;;;;;;;23.80;56.60;;;;;;5104317;28;19987;-64
2022/07/14 14:35:06;;;;;;;;;;;24.00;56.00;;;;;;5122232;28;19957;-65
2022/07/14 14:37:32;;;;;;;;;;;23.80;55.40;;;;;;5126628;28;19919;-64
2022/07/14 14:39:57;;;;;;;;;;;23.90;55.20;;;;;;5114460;28;19920;-66